sensor_id;sensor_type;location;lat;lon;timestamp;pressure;altitude;pressure_sealevel;temperature;humidity
56174;BME280;42058;52.308;20.924;2022-09-21T00:03:44;100815.92;;;10.56;100.00
56174;BME280;42058;52.308;20.924;2022-09-21T00:06:15;100812.80;;;10.58;100.00
56174;BME280;42058;52.308;20.924;2022-09-21T00:08:43;100814.55;;;10.60;100.00
56174;BME280;42058;52.308;20.924;2022-09-21T00:11:19;100817.13;;;10.63;100.00
56174;BME280;42058;52.308;20.924;2022-09-21T00:13:53;100815.79;;;10.64;100.00
56174;BME280;42058;52.308;20.924;2022-09-21T00:16:21;100812.70;;;10.65;100.00
56174;BME280;42058;52.308;20.924;2022-09-21T00:18:47;100815.33;;;10.65;100.00
56174;BME280;42058;52.308;20.924;2022-09-21T00:21:15;100814.84;;;10.67;100.00
56174;BME280;42058;52.308;20.924;2022-09-21T00:23:42;100814.36;;;10.69;100.00
56174;BME280;42058;52.308;20.924;2022-09-21T00:26:11;100811.27;;;10.69;100.00
56174;BME280;42058;52.308;20.924;2022-09-21T00:28:39;100814.33;;;10.70;100.00
56174;BME280;42058;52.308;20.924;2022-09-21T00:31:09;100816.51;;;10.71;100.00
56174;BME280;42058;52.308;20.924;2022-09-21T00:33:38;100818.26;;;10.72;100.00
56174;BME280;42058;52.308;20.924;2022-09-21T00:36:07;100812.99;;;10.72;100.00
56174;BME280;42058;52.308;20.924;2022-09-21T00:38:37;100823.49;;;10.73;100.00
56174;BME280;42058;52.308;20.924;2022-09-21T00:41:05;100819.09;;;10.74;100.00
56174;BME280;42058;52.308;20.924;2022-09-21T00:43:33;100819.43;;;10.78;100.00
56174;BME280;42058;52.308;20.924;2022-09-21T00:46:04;100818.55;;;10.79;100.00
56174;BME280;42058;52.308;20.924;2022-09-21T00:48:33;100825.95;;;10.81;100.00
56174;BME280;42058;52.308;20.924;2022-09-21T00:51:02;100824.16;;;10.83;100.00
56174;BME280;42058;52.308;20.924;2022-09-21T00:53:31;100824.61;;;10.83;100.00
56174;BME280;42058;52.308;20.924;2022-09-21T00:55:58;100826.79;;;10.83;100.00
56174;BME280;42058;52.308;20.924;2022-09-21T00:58:33;100819.32;;;10.84;100.00
56174;BME280;42058;52.308;20.924;2022-09-21T01:01:01;100823.19;;;10.87;100.00
56174;BME280;42058;52.308;20.924;2022-09-21T01:03:29;100823.61;;;10.88;100.00
56174;BME280;42058;52.308;20.924;2022-09-21T01:05:56;100821.38;;;10.89;100.00
56174;BME280;42058;52.308;20.924;2022-09-21T01:08:24;100823.59;;;10.90;100.00
56174;BME280;42058;52.308;20.924;2022-09-21T01:13:56;100818.72;;;10.91;100.00
56174;BME280;42058;52.308;20.924;2022-09-21T01:17:01;100820.86;;;10.93;100.00
56174;BME280;42058;52.308;20.924;2022-09-21T01:31:24;100836.58;;;10.98;100.00
56174;BME280;42058;52.308;20.924;2022-09-21T01:34:06;100839.61;;;10.99;100.00
56174;BME280;42058;52.308;20.924;2022-09-21T01:36:34;100841.79;;;11.01;100.00
56174;BME280;42058;52.308;20.924;2022-09-21T01:39:08;100839.55;;;11.02;100.00
56174;BME280;42058;52.308;20.924;2022-09-21T01:41:38;100837.35;;;11.03;100.00
56174;BME280;42058;52.308;20.924;2022-09-21T01:44:09;100843.02;;;11.04;100.00
56174;BME280;42058;52.308;20.924;2022-09-21T01:46:38;100835.14;;;11.02;100.00
56174;BME280;42058;52.308;20.924;2022-09-21T01:49:13;100835.61;;;11.02;100.00
56174;BME280;42058;52.308;20.924;2022-09-21T01:51:50;100841.73;;;11.02;100.00
56174;BME280;42058;52.308;20.924;2022-09-21T01:54:32;100845.25;;;11.03;100.00
56174;BME280;42058;52.308;20.924;2022-09-21T01:57:10;100844.80;;;11.03;100.00
56174;BME280;42058;52.308;20.924;2022-09-21T01:59:57;100843.87;;;11.04;100.00
56174;BME280;42058;52.308;20.924;2022-09-21T02:02:37;100853.98;;;11.05;100.00
56174;BME280;42058;52.308;20.924;2022-09-21T02:05:07;100856.19;;;11.04;100.00
56174;BME280;42058;52.308;20.924;2022-09-21T02:07:34;100854.95;;;11.01;100.00
56174;BME280;42058;52.308;20.924;2022-09-21T02:10:04;100858.91;;;11.01;100.00
56174;BME280;42058;52.308;20.924;2022-09-21T02:12:33;100864.57;;;11.02;100.00
56174;BME280;42058;52.308;20.924;2022-09-21T02:15:00;100854.47;;;11.03;100.00
56174;BME280;42058;52.308;20.924;2022-09-21T02:20:31;100864.91;;;11.06;100.00
56174;BME280;42058;52.308;20.924;2022-09-21T02:23:15;100864.91;;;11.06;100.00
56174;BME280;42058;52.308;20.924;2022-09-21T02:25:48;100869.30;;;11.07;100.00
56174;BME280;42058;52.308;20.924;2022-09-21T02:28:36;100861.39;;;11.07;100.00
56174;BME280;42058;52.308;20.924;2022-09-21T02:31:39;100860.94;;;11.07;100.00
56174;BME280;42058;52.308;20.924;2022-09-21T02:34:33;100861.80;;;11.08;100.00
56174;BME280;42058;52.308;20.924;2022-09-21T02:37:20;100863.11;;;11.08;100.00
56174;BME280;42058;52.308;20.924;2022-09-21T02:40:06;100855.64;;;11.09;100.00
56174;BME280;42058;52.308;20.924;2022-09-21T02:42:38;100860.02;;;11.10;100.00
56174;BME280;42058;52.308;20.924;2022-09-21T02:48:06;100868.38;;;11.08;100.00
56174;BME280;42058;52.308;20.924;2022-09-21T02:50:51;100871.93;;;11.07;100.00
56174;BME280;42058;52.308;20.924;2022-09-21T02:53:29;100867.15;;;11.05;100.00
56174;BME280;42058;52.308;20.924;2022-09-21T02:55:59;100868.47;;;11.05;100.00
56174;BME280;42058;52.308;20.924;2022-09-21T02:58:28;100865.83;;;11.05;100.00
56174;BME280;42058;52.308;20.924;2022-09-21T03:00:56;100864.03;;;11.07;100.00
56174;BME280;42058;52.308;20.924;2022-09-21T03:03:24;100873.64;;;11.08;100.00
56174;BME280;42058;52.308;20.924;2022-09-21T03:05:54;100874.05;;;11.10;100.00
56174;BME280;42058;52.308;20.924;2022-09-21T03:08:20;100868.32;;;11.11;100.00
56174;BME280;42058;52.308;20.924;2022-09-21T03:10:47;100870.07;;;11.12;100.00
56174;BME280;42058;52.308;20.924;2022-09-21T03:13:15;100870.07;;;11.12;100.00
56174;BME280;42058;52.308;20.924;2022-09-21T03:15:42;100874.85;;;11.14;100.00
56174;BME280;42058;52.308;20.924;2022-09-21T03:18:11;100871.30;;;11.15;100.00
56174;BME280;42058;52.308;20.924;2022-09-21T03:20:39;100873.48;;;11.17;100.00
56174;BME280;42058;52.308;20.924;2022-09-21T03:23:06;100875.19;;;11.18;100.00
56174;BME280;42058;52.308;20.924;2022-09-21T03:25:32;100874.30;;;11.19;100.00
56174;BME280;42058;52.308;20.924;2022-09-21T03:27:58;100882.20;;;11.19;100.00
56174;BME280;42058;52.308;20.924;2022-09-21T03:30:26;100886.56;;;11.20;100.00
56174;BME280;42058;52.308;20.924;2022-09-21T03:32:54;100886.09;;;11.21;100.00
56174;BME280;42058;52.308;20.924;2022-09-21T03:35:22;100884.75;;;11.22;100.00
56174;BME280;42058;52.308;20.924;2022-09-21T03:37:49;100881.23;;;11.23;100.00
56174;BME280;42058;52.308;20.924;2022-09-21T03:40:16;100892.17;;;11.24;100.00
56174;BME280;42058;52.308;20.924;2022-09-21T03:42:42;100888.70;;;11.22;100.00
56174;BME280;42058;52.308;20.924;2022-09-21T03:45:09;100886.50;;;11.23;100.00
56174;BME280;42058;52.308;20.924;2022-09-21T03:47:37;100884.27;;;11.24;100.00
56174;BME280;42058;52.308;20.924;2022-09-21T03:50:05;100880.31;;;11.24;100.00
56174;BME280;42058;52.308;20.924;2022-09-21T03:52:33;100890.39;;;11.26;100.00
56174;BME280;42058;52.308;20.924;2022-09-21T03:55:00;100893.43;;;11.27;100.00
56174;BME280;42058;52.308;20.924;2022-09-21T03:57:29;100891.71;;;11.26;100.00
56174;BME280;42058;52.308;20.924;2022-09-21T03:59:55;100896.98;;;11.26;100.00
56174;BME280;42058;52.308;20.924;2022-09-21T04:02:21;100900.02;;;11.27;100.00
56174;BME280;42058;52.308;20.924;2022-09-21T04:04:47;100899.13;;;11.28;100.00
56174;BME280;42058;52.308;20.924;2022-09-21T04:07:13;100897.78;;;11.30;100.00
56174;BME280;42058;52.308;20.924;2022-09-21T04:09:40;100900.41;;;11.30;100.00
56174;BME280;42058;52.308;20.924;2022-09-21T04:12:06;100901.67;;;11.31;100.00
56174;BME280;42058;52.308;20.924;2022-09-21T04:14:33;100906.55;;;11.30;100.00
56174;BME280;42058;52.308;20.924;2022-09-21T04:16:59;100910.89;;;11.31;100.00
56174;BME280;42058;52.308;20.924;2022-09-21T04:19:25;100911.75;;;11.33;100.00
56174;BME280;42058;52.308;20.924;2022-09-21T04:21:51;100909.13;;;11.33;100.00
56174;BME280;42058;52.308;20.924;2022-09-21T04:24:17;100913.08;;;11.33;100.00
56174;BME280;42058;52.308;20.924;2022-09-21T04:26:44;100909.55;;;11.33;100.00
56174;BME280;42058;52.308;20.924;2022-09-21T04:29:12;100914.39;;;11.33;100.00
56174;BME280;42058;52.308;20.924;2022-09-21T04:31:38;100912.16;;;11.34;100.00
56174;BME280;42058;52.308;20.924;2022-09-21T04:34:05;100917.37;;;11.38;100.00
56174;BME280;42058;52.308;20.924;2022-09-21T04:36:31;100919.91;;;11.41;100.00
56174;BME280;42058;52.308;20.924;2022-09-21T04:39:00;100919.91;;;11.41;100.00
56174;BME280;42058;52.308;20.924;2022-09-21T04:41:27;100927.79;;;11.42;100.00
56174;BME280;42058;52.308;20.924;2022-09-21T04:43:53;100930.03;;;11.41;100.00
56174;BME280;42058;52.308;20.924;2022-09-21T04:46:19;100922.55;;;11.41;100.00
56174;BME280;42058;52.308;20.924;2022-09-21T04:48:46;100934.84;;;11.42;100.00
56174;BME280;42058;52.308;20.924;2022-09-21T04:51:15;100933.06;;;11.42;100.00
56174;BME280;42058;52.308;20.924;2022-09-21T04:53:43;100936.13;;;11.43;100.00
56174;BME280;42058;52.308;20.924;2022-09-21T04:56:12;100936.98;;;11.44;100.00
56174;BME280;42058;52.308;20.924;2022-09-21T04:58:39;100930.00;;;11.43;100.00
56174;BME280;42058;52.308;20.924;2022-09-21T05:01:06;100935.20;;;11.44;100.00
56174;BME280;42058;52.308;20.924;2022-09-21T05:03:32;100941.39;;;11.43;100.00
56174;BME280;42058;52.308;20.924;2022-09-21T05:05:59;100935.66;;;11.44;100.00
56174;BME280;42058;52.308;20.924;2022-09-21T05:08:26;100943.08;;;11.46;100.00
56174;BME280;42058;52.308;20.924;2022-09-21T05:11:13;100945.72;;;11.46;100.00
56174;BME280;42058;52.308;20.924;2022-09-21T05:13:41;100948.36;;;11.46;100.00
56174;BME280;42058;52.308;20.924;2022-09-21T05:16:08;100947.47;;;11.47;100.00
56174;BME280;42058;52.308;20.924;2022-09-21T05:18:34;100949.67;;;11.46;100.00
56174;BME280;42058;52.308;20.924;2022-09-21T05:21:02;100950.50;;;11.48;100.00
56174;BME280;42058;52.308;20.924;2022-09-21T05:23:29;100956.20;;;11.49;100.00
56174;BME280;42058;52.308;20.924;2022-09-21T05:25:57;100954.42;;;11.49;100.00
56174;BME280;42058;52.308;20.924;2022-09-21T05:28:24;100952.68;;;11.50;100.00
56174;BME280;42058;52.308;20.924;2022-09-21T05:30:57;100954.89;;;11.49;100.00
56174;BME280;42058;52.308;20.924;2022-09-21T05:33:43;100957.03;;;11.51;100.00
56174;BME280;42058;52.308;20.924;2022-09-21T05:36:39;100956.55;;;11.53;100.00
56174;BME280;42058;52.308;20.924;2022-09-21T05:39:16;100962.16;;;11.57;100.00
56174;BME280;42058;52.308;20.924;2022-09-21T05:41:43;100966.17;;;11.56;100.00
56174;BME280;42058;52.308;20.924;2022-09-21T05:44:13;100970.95;;;11.58;100.00
56174;BME280;42058;52.308;20.924;2022-09-21T05:46:42;100971.88;;;11.55;100.00
56174;BME280;42058;52.308;20.924;2022-09-21T05:52:13;100976.26;;;11.56;100.00
56174;BME280;42058;52.308;20.924;2022-09-21T05:55:06;100975.77;;;11.58;100.00
56174;BME280;42058;52.308;20.924;2022-09-21T06:00:27;100979.23;;;11.60;100.00
56174;BME280;42058;52.308;20.924;2022-09-21T06:05:52;100984.50;;;11.60;100.00
56174;BME280;42058;52.308;20.924;2022-09-21T06:08:19;100986.66;;;11.62;100.00
56174;BME280;42058;52.308;20.924;2022-09-21T06:10:45;100984.84;;;11.64;100.00
56174;BME280;42058;52.308;20.924;2022-09-21T06:13:11;100989.23;;;11.65;100.00
56174;BME280;42058;52.308;20.924;2022-09-21T06:15:37;100988.34;;;11.66;100.00
56174;BME280;42058;52.308;20.924;2022-09-21T06:18:06;100984.78;;;11.67;100.00
56174;BME280;42058;52.308;20.924;2022-09-21T06:20:33;100992.70;;;11.67;100.00
56174;BME280;42058;52.308;20.924;2022-09-21T06:23:05;100993.13;;;11.68;100.00
56174;BME280;42058;52.308;20.924;2022-09-21T06:25:33;100996.16;;;11.69;100.00
56174;BME280;42058;52.308;20.924;2022-09-21T06:28:09;100998.31;;;11.71;100.00
56174;BME280;42058;52.308;20.924;2022-09-21T06:30:39;101001.32;;;11.76;100.00
56174;BME280;42058;52.308;20.924;2022-09-21T06:33:08;101006.97;;;11.78;100.00
56174;BME280;42058;52.308;20.924;2022-09-21T06:35:35;100999.85;;;11.82;100.00
56174;BME280;42058;52.308;20.924;2022-09-21T06:38:07;100999.36;;;11.84;100.00
56174;BME280;42058;52.308;20.924;2022-09-21T06:40:34;101008.96;;;11.86;100.00
56174;BME280;42058;52.308;20.924;2022-09-21T06:43:03;101006.30;;;11.88;100.00
56174;BME280;42058;52.308;20.924;2022-09-21T06:45:31;101010.68;;;11.89;100.00
56174;BME280;42058;52.308;20.924;2022-09-21T06:47:57;101009.36;;;11.89;100.00
56174;BME280;42058;52.308;20.924;2022-09-21T06:50:24;101006.27;;;11.91;100.00
56174;BME280;42058;52.308;20.924;2022-09-21T06:52:50;101012.38;;;11.93;100.00
56174;BME280;42058;52.308;20.924;2022-09-21T06:55:16;101015.84;;;11.95;100.00
56174;BME280;42058;52.308;20.924;2022-09-21T06:57:43;101016.66;;;11.97;100.00
56174;BME280;42058;52.308;20.924;2022-09-21T07:00:11;101011.36;;;11.99;100.00
56174;BME280;42058;52.308;20.924;2022-09-21T07:02:43;101020.56;;;12.00;100.00
56174;BME280;42058;52.308;20.924;2022-09-21T07:05:11;101020.93;;;12.03;100.00
56174;BME280;42058;52.308;20.924;2022-09-21T07:07:37;101022.65;;;12.05;100.00
56174;BME280;42058;52.308;20.924;2022-09-21T07:10:05;101023.91;;;12.08;100.00
56174;BME280;42058;52.308;20.924;2022-09-21T07:12:33;101029.52;;;12.13;100.00
56174;BME280;42058;52.308;20.924;2022-09-21T07:15:00;101025.07;;;12.15;100.00
56174;BME280;42058;52.308;20.924;2022-09-21T07:17:35;101028.04;;;12.19;100.00
56174;BME280;42058;52.308;20.924;2022-09-21T07:20:05;101023.53;;;12.24;100.00
56174;BME280;42058;52.308;20.924;2022-09-21T07:22:33;101028.64;;;12.30;100.00
56174;BME280;42058;52.308;20.924;2022-09-21T07:24:59;101026.41;;;12.33;100.00
56174;BME280;42058;52.308;20.924;2022-09-21T07:27:27;101030.33;;;12.34;100.00
56174;BME280;42058;52.308;20.924;2022-09-21T07:29:54;101032.48;;;12.36;100.00
56174;BME280;42058;52.308;20.924;2022-09-21T07:32:21;101028.91;;;12.37;100.00
56174;BME280;42058;52.308;20.924;2022-09-21T07:34:47;101028.88;;;12.39;100.00
56174;BME280;42058;52.308;20.924;2022-09-21T07:37:13;101028.42;;;12.39;100.00
56174;BME280;42058;52.308;20.924;2022-09-21T07:39:39;101028.78;;;12.43;100.00
56174;BME280;42058;52.308;20.924;2022-09-21T07:42:06;101034.43;;;12.46;100.00
56174;BME280;42058;52.308;20.924;2022-09-21T07:44:32;101023.37;;;12.48;100.00
56174;BME280;42058;52.308;20.924;2022-09-21T07:46:59;101030.77;;;12.52;100.00
56174;BME280;42058;52.308;20.924;2022-09-21T07:49:27;101029.38;;;12.55;100.00
56174;BME280;42058;52.308;20.924;2022-09-21T07:51:53;101031.49;;;12.58;100.00
56174;BME280;42058;52.308;20.924;2022-09-21T07:54:19;101028.29;;;12.63;100.00
56174;BME280;42058;52.308;20.924;2022-09-21T07:56:46;101036.08;;;12.68;100.00
56174;BME280;42058;52.308;20.924;2022-09-21T07:59:13;101037.72;;;12.72;100.00
56174;BME280;42058;52.308;20.924;2022-09-21T08:01:40;101029.77;;;12.74;100.00
56174;BME280;42058;52.308;20.924;2022-09-21T08:04:08;101036.77;;;12.76;100.00
56174;BME280;42058;52.308;20.924;2022-09-21T08:06:36;101038.91;;;12.78;100.00
56174;BME280;42058;52.308;20.924;2022-09-21T08:09:05;101036.66;;;12.79;100.00
56174;BME280;42058;52.308;20.924;2022-09-21T08:11:32;101042.80;;;12.81;100.00
56174;BME280;42058;52.308;20.924;2022-09-21T08:14:01;101040.98;;;12.83;100.00
56174;BME280;42058;52.308;20.924;2022-09-21T08:16:29;101040.09;;;12.83;100.00
56174;BME280;42058;52.308;20.924;2022-09-21T08:18:56;101049.30;;;12.84;100.00
56174;BME280;42058;52.308;20.924;2022-09-21T08:21:22;101052.37;;;12.85;100.00
56174;BME280;42058;52.308;20.924;2022-09-21T08:23:48;101054.09;;;12.86;100.00
56174;BME280;42058;52.308;20.924;2022-09-21T08:26:17;101047.91;;;12.87;100.00
56174;BME280;42058;52.308;20.924;2022-09-21T08:28:45;101048.23;;;12.92;100.00
56174;BME280;42058;52.308;20.924;2022-09-21T08:31:18;101050.77;;;12.96;100.00
56174;BME280;42058;52.308;20.924;2022-09-21T08:33:46;101056.02;;;12.98;100.00
56174;BME280;42058;52.308;20.924;2022-09-21T08:36:13;101059.05;;;12.99;100.00
56174;BME280;42058;52.308;20.924;2022-09-21T08:38:39;101054.70;;;12.98;100.00
56174;BME280;42058;52.308;20.924;2022-09-21T08:44:17;101051.59;;;12.98;100.00
56174;BME280;42058;52.308;20.924;2022-09-21T08:47:50;101058.16;;;13.00;100.00
56174;BME280;42058;52.308;20.924;2022-09-21T08:49:39;101059.88;;;13.01;100.00
56174;BME280;42058;52.308;20.924;2022-09-21T08:52:10;101062.52;;;13.01;100.00
56174;BME280;42058;52.308;20.924;2022-09-21T08:55:02;101066.48;;;13.01;100.00
56174;BME280;42058;52.308;20.924;2022-09-21T08:57:33;101059.88;;;13.01;100.00
56174;BME280;42058;52.308;20.924;2022-09-21T09:00:00;101060.37;;;12.99;100.00
56174;BME280;42058;52.308;20.924;2022-09-21T09:05:45;101057.63;;;13.03;100.00
56174;BME280;42058;52.308;20.924;2022-09-21T09:17:31;101064.88;;;13.12;100.00
56174;BME280;42058;52.308;20.924;2022-09-21T09:20:10;101064.84;;;13.13;100.00
56174;BME280;42058;52.308;20.924;2022-09-21T09:23:38;101063.84;;;13.17;100.00
56174;BME280;42058;52.308;20.924;2022-09-21T09:25:37;101060.63;;;13.22;100.00
56174;BME280;42058;52.308;20.924;2022-09-21T09:28:23;101057.80;;;13.28;100.00
56174;BME280;42058;52.308;20.924;2022-09-21T09:31:05;101061.61;;;13.36;100.00
56174;BME280;42058;52.308;20.924;2022-09-21T09:34:19;101064.53;;;13.42;100.00
56174;BME280;42058;52.308;20.924;2022-09-21T09:36:29;101064.39;;;13.46;100.00
56174;BME280;42058;52.308;20.924;2022-09-21T09:39:04;101059.88;;;13.50;100.00
56174;BME280;42058;52.308;20.924;2022-09-21T09:42:05;101060.19;;;13.54;100.00
56174;BME280;42058;52.308;20.924;2022-09-21T09:51:00;101052.34;;;13.68;100.00
56174;BME280;42058;52.308;20.924;2022-09-21T09:53:26;101050.43;;;13.73;100.00
56174;BME280;42058;52.308;20.924;2022-09-21T09:55:55;101051.13;;;13.78;100.00
56174;BME280;42058;52.308;20.924;2022-09-21T09:58:55;101052.29;;;13.84;100.00
56174;BME280;42058;52.308;20.924;2022-09-21T10:04:07;101054.66;;;13.93;100.00
56174;BME280;42058;52.308;20.924;2022-09-21T10:06:35;101052.78;;;13.97;100.00
56174;BME280;42058;52.308;20.924;2022-09-21T10:09:16;101047.03;;;13.97;100.00
56174;BME280;42058;52.308;20.924;2022-09-21T10:11:45;101040.37;;;13.99;100.00
56174;BME280;42058;52.308;20.924;2022-09-21T10:14:17;101042.55;;;13.99;100.00
56174;BME280;42058;52.308;20.924;2022-09-21T10:16:49;101033.29;;;13.99;100.00
56174;BME280;42058;52.308;20.924;2022-09-21T10:19:25;101034.83;;;14.07;100.00
56174;BME280;42058;52.308;20.924;2022-09-21T10:21:58;101041.11;;;14.17;100.00
56174;BME280;42058;52.308;20.924;2022-09-21T10:24:32;101044.95;;;14.22;100.00
56174;BME280;42058;52.308;20.924;2022-09-21T10:27:13;101044.95;;;14.22;100.00
56174;BME280;42058;52.308;20.924;2022-09-21T10:29:43;101046.97;;;14.27;100.00
56174;BME280;42058;52.308;20.924;2022-09-21T10:37:37;101040.27;;;14.30;100.00
56174;BME280;42058;52.308;20.924;2022-09-21T10:40:21;101036.71;;;14.31;100.00
56174;BME280;42058;52.308;20.924;2022-09-21T10:42:52;101036.59;;;14.34;100.00
56174;BME280;42058;52.308;20.924;2022-09-21T10:45:23;101025.45;;;14.38;100.00
56174;BME280;42058;52.308;20.924;2022-09-21T10:47:58;101025.45;;;14.38;100.00
56174;BME280;42058;52.308;20.924;2022-09-21T10:50:40;101035.81;;;14.46;100.00
56174;BME280;42058;52.308;20.924;2022-09-21T10:53:15;101034.97;;;14.43;100.00
56174;BME280;42058;52.308;20.924;2022-09-21T10:55:54;101038.76;;;14.50;100.00
56174;BME280;42058;52.308;20.924;2022-09-21T10:58:27;101039.56;;;14.52;100.00
56174;BME280;42058;52.308;20.924;2022-09-21T11:00:54;101031.20;;;14.51;100.00
56174;BME280;42058;52.308;20.924;2022-09-21T11:06:45;101035.50;;;14.55;100.00
56174;BME280;42058;52.308;20.924;2022-09-21T11:09:31;101029.92;;;14.64;100.00
56174;BME280;42058;52.308;20.924;2022-09-21T11:20:55;101033.07;;;14.75;100.00
56174;BME280;42058;52.308;20.924;2022-09-21T11:30:29;101028.06;;;14.79;100.00
56174;BME280;42058;52.308;20.924;2022-09-21T11:32:29;101028.31;;;14.85;100.00
56174;BME280;42058;52.308;20.924;2022-09-21T11:35:06;101029.87;;;14.91;100.00
56174;BME280;42058;52.308;20.924;2022-09-21T11:41:02;101016.81;;;14.98;100.00
56174;BME280;42058;52.308;20.924;2022-09-21T11:46:50;101012.12;;;15.06;100.00
56174;BME280;42058;52.308;20.924;2022-09-21T11:49:31;101020.78;;;15.11;100.00
56174;BME280;42058;52.308;20.924;2022-09-21T11:52:46;101011.09;;;15.10;100.00
56174;BME280;42058;52.308;20.924;2022-09-21T11:58:26;101014.39;;;15.17;100.00
56174;BME280;42058;52.308;20.924;2022-09-21T12:00:39;101016.86;;;15.22;100.00
56174;BME280;42058;52.308;20.924;2022-09-21T12:06:04;101013.81;;;15.32;100.00
56174;BME280;42058;52.308;20.924;2022-09-21T12:09:29;101013.58;;;15.38;100.00
56174;BME280;42058;52.308;20.924;2022-09-21T12:12:19;101014.75;;;15.43;100.00
56174;BME280;42058;52.308;20.924;2022-09-21T12:14:58;101006.69;;;15.46;100.00
56174;BME280;42058;52.308;20.924;2022-09-21T12:24:19;100999.56;;;15.58;98.31
56174;BME280;42058;52.308;20.924;2022-09-21T12:26:05;100996.28;;;15.64;96.98
56174;BME280;42058;52.308;20.924;2022-09-21T12:31:28;100983.23;;;15.69;96.43
56174;BME280;42058;52.308;20.924;2022-09-21T12:34:20;100995.73;;;15.79;96.51
56174;BME280;42058;52.308;20.924;2022-09-21T12:40:04;100998.14;;;15.85;92.27
56174;BME280;42058;52.308;20.924;2022-09-21T12:42:51;100993.69;;;15.86;91.54
56174;BME280;42058;52.308;20.924;2022-09-21T12:45:31;100993.69;;;15.86;91.54
56174;BME280;42058;52.308;20.924;2022-09-21T12:53:34;100989.84;;;15.83;89.01
56174;BME280;42058;52.308;20.924;2022-09-21T12:59:06;101003.75;;;15.78;89.37
56174;BME280;42058;52.308;20.924;2022-09-21T13:02:00;101005.20;;;15.73;90.63
56174;BME280;42058;52.308;20.924;2022-09-21T13:10:44;101013.41;;;15.55;91.92
56174;BME280;42058;52.308;20.924;2022-09-21T13:15:56;101018.09;;;15.48;93.30
56174;BME280;42058;52.308;20.924;2022-09-21T13:18:30;101019.06;;;15.46;93.40
56174;BME280;42058;52.308;20.924;2022-09-21T13:21:01;101010.82;;;15.42;93.83
56174;BME280;42058;52.308;20.924;2022-09-21T13:23:54;101009.97;;;15.41;94.31
56174;BME280;42058;52.308;20.924;2022-09-21T13:26:38;101009.97;;;15.41;94.31
56174;BME280;42058;52.308;20.924;2022-09-21T13:32:02;101012.72;;;15.38;94.52
56174;BME280;42058;52.308;20.924;2022-09-21T13:34:34;101010.17;;;15.35;94.52
56174;BME280;42058;52.308;20.924;2022-09-21T13:47:49;101014.49;;;15.26;94.65
56174;BME280;42058;52.308;20.924;2022-09-21T13:50:38;101007.06;;;15.24;95.42
56174;BME280;42058;52.308;20.924;2022-09-21T13:53:23;101011.41;;;15.26;96.73
56174;BME280;42058;52.308;20.924;2022-09-21T13:55:59;101003.39;;;15.28;96.79
56174;BME280;42058;52.308;20.924;2022-09-21T13:58:32;101003.31;;;15.29;96.73
56174;BME280;42058;52.308;20.924;2022-09-21T14:01:05;101002.87;;;15.30;97.00
56174;BME280;42058;52.308;20.924;2022-09-21T14:03:49;100999.70;;;15.32;97.40
56174;BME280;42058;52.308;20.924;2022-09-21T14:06:23;100993.45;;;15.33;97.78
56174;BME280;42058;52.308;20.924;2022-09-21T14:08:59;100991.23;;;15.34;98.29
56174;BME280;42058;52.308;20.924;2022-09-21T14:11:31;100991.75;;;15.32;98.61
56174;BME280;42058;52.308;20.924;2022-09-21T14:24:39;100994.68;;;15.36;98.97
56174;BME280;42058;52.308;20.924;2022-09-21T14:27:29;100996.42;;;15.37;98.83
56174;BME280;42058;52.308;20.924;2022-09-21T14:30:15;100997.75;;;15.37;99.03
56174;BME280;42058;52.308;20.924;2022-09-21T14:35:33;100987.72;;;15.33;98.95
56174;BME280;42058;52.308;20.924;2022-09-21T14:40:47;100997.95;;;15.31;97.42
56174;BME280;42058;52.308;20.924;2022-09-21T14:43:19;100997.16;;;15.29;97.35
56174;BME280;42058;52.308;20.924;2022-09-21T14:46:12;100987.07;;;15.27;97.47
56174;BME280;42058;52.308;20.924;2022-09-21T14:49:03;100988.50;;;15.24;97.32
56174;BME280;42058;52.308;20.924;2022-09-21T15:00:46;100992.19;;;15.19;97.39
56174;BME280;42058;52.308;20.924;2022-09-21T15:03:49;100999.58;;;15.23;97.56
56174;BME280;42058;52.308;20.924;2022-09-21T15:06:30;100992.61;;;15.21;97.06
56174;BME280;42058;52.308;20.924;2022-09-21T15:09:29;100995.84;;;15.17;96.29
56174;BME280;42058;52.308;20.924;2022-09-21T15:13:00;100996.80;;;15.14;96.72
56174;BME280;42058;52.308;20.924;2022-09-21T15:18:20;101005.45;;;15.08;97.26
56174;BME280;42058;52.308;20.924;2022-09-21T15:23:36;101008.72;;;15.03;97.88
56174;BME280;42058;52.308;20.924;2022-09-21T15:26:09;101004.80;;;15.01;97.93
56174;BME280;42058;52.308;20.924;2022-09-21T15:28:43;101017.23;;;14.99;97.97
56174;BME280;42058;52.308;20.924;2022-09-21T15:31:15;101019.47;;;14.98;98.12
56174;BME280;42058;52.308;20.924;2022-09-21T15:33:43;101027.47;;;14.96;98.32
56174;BME280;42058;52.308;20.924;2022-09-21T15:36:21;101023.58;;;14.95;98.61
56174;BME280;42058;52.308;20.924;2022-09-21T15:38:50;101030.69;;;14.93;98.82
56174;BME280;42058;52.308;20.924;2022-09-21T15:41:35;101030.86;;;14.88;98.47
56174;BME280;42058;52.308;20.924;2022-09-21T15:44:20;101038.44;;;14.86;98.56
56174;BME280;42058;52.308;20.924;2022-09-21T15:46:47;101043.06;;;14.80;98.61
56174;BME280;42058;52.308;20.924;2022-09-21T15:49:19;101048.97;;;14.75;98.61